TimeCST,TemperatureF,Dew PointF,Humidity,Sea Level PressureIn,VisibilityMPH,Wind Direction,Wind SpeedMPH,Gust SpeedMPH,PrecipitationIn,Events,Conditions,WindDirDegrees,DateUTC
12:03 AM,17.6,15.8,93,29.97,0.2,Calm,Calm,-,N/A,Fog,Light Freezing Fog,0,2013-01-08 06:03:00
12:10 AM,17.6,15.8,93,29.97,0.2,NNW,3.5,-,N/A,Fog,Light Freezing Fog,330,2013-01-08 06:10:00
12:17 AM,15.8,14.0,93,29.96,0.5,NW,3.5,-,N/A,Fog,Light Freezing Fog,320,2013-01-08 06:17:00
12:24 AM,14.0,10.4,86,29.96,0.2,Calm,Calm,-,N/A,Fog,Light Freezing Fog,0,2013-01-08 06:24:00
12:40 AM,12.2,8.6,85,29.96,1.0,SSW,6.9,-,N/A,,Mist,210,2013-01-08 06:40:00
12:44 AM,12.2,10.4,92,29.96,3.0,SSW,6.9,-,N/A,,Mostly Cloudy,200,2013-01-08 06:44:00
12:48 AM,12.2,10.4,92,29.95,1.8,SSW,6.9,-,N/A,,Mostly Cloudy,200,2013-01-08 06:48:00
12:52 AM,12.9,9.0,84,30.01,1.2,SSW,4.6,-,N/A,,Mostly Cloudy,200,2013-01-08 06:52:00
1:06 AM,14.0,10.4,86,29.95,0.2,South,5.8,-,N/A,Fog,Light Freezing Fog,190,2013-01-08 07:06:00
1:18 AM,14.0,10.4,86,29.95,0.5,South,3.5,-,N/A,Fog,Light Freezing Fog,190,2013-01-08 07:18:00
1:32 AM,14.0,10.4,86,29.95,0.2,Calm,Calm,-,N/A,Fog,Light Freezing Fog,0,2013-01-08 07:32:00
1:38 AM,15.8,10.4,79,29.95,0.2,Calm,Calm,-,N/A,Fog,Light Freezing Fog,0,2013-01-08 07:38:00
1:52 AM,14.0,10.9,88,30.00,0.5,Calm,Calm,-,N/A,Fog,Light Freezing Fog,0,2013-01-08 07:52:00
1:59 AM,14.0,10.4,86,29.94,2.0,Calm,Calm,-,N/A,,Clear,0,2013-01-08 07:59:00
2:24 AM,12.2,8.6,85,29.94,5.0,East,3.5,-,N/A,,Clear,80,2013-01-08 08:24:00
2:52 AM,14.0,10.0,84,29.97,5.0,East,5.8,-,N/A,,Clear,90,2013-01-08 08:52:00
3:06 AM,12.2,10.4,92,29.92,5.0,East,5.8,-,N/A,,Partly Cloudy,100,2013-01-08 09:06:00
3:36 AM,15.8,10.4,79,29.91,5.0,SE,4.6,-,N/A,,Mostly Cloudy,130,2013-01-08 09:36:00
3:52 AM,14.0,10.9,88,29.95,4.0,East,5.8,-,N/A,,Mostly Cloudy,100,2013-01-08 09:52:00
4:17 AM,14.0,10.4,86,29.89,1.8,East,4.6,-,N/A,,Overcast,100,2013-01-08 10:17:00
4:29 AM,15.8,10.4,79,29.89,3.0,East,3.5,-,N/A,,Overcast,90,2013-01-08 10:29:00
4:44 AM,12.2,10.4,92,29.88,1.8,East,4.6,-,N/A,,Overcast,100,2013-01-08 10:44:00
4:52 AM,12.9,10.0,88,29.93,0.8,ESE,5.8,-,N/A,,Mist,110,2013-01-08 10:52:00
5:16 AM,12.2,8.6,85,29.87,0.8,East,3.5,-,N/A,,Mist,90,2013-01-08 11:16:00
5:29 AM,15.8,10.4,79,29.88,1.8,Calm,Calm,-,N/A,,Haze,0,2013-01-08 11:29:00
5:37 AM,15.8,12.2,86,29.88,2.5,Calm,Calm,-,N/A,,Overcast,0,2013-01-08 11:37:00
5:52 AM,14.0,10.9,88,29.93,1.2,Calm,Calm,-,N/A,,Overcast,0,2013-01-08 11:52:00
6:11 AM,14.0,10.4,86,29.87,0.2,East,3.5,-,N/A,Fog,Light Freezing Fog,100,2013-01-08 12:11:00
6:18 AM,14.0,10.4,86,29.87,0.2,ESE,3.5,-,N/A,Fog,Light Freezing Fog,110,2013-01-08 12:18:00
6:32 AM,15.8,12.2,86,29.87,0.2,ESE,4.6,-,N/A,Fog,Light Freezing Fog,120,2013-01-08 12:32:00
6:52 AM,17.1,12.9,84,29.93,0.5,Calm,Calm,-,N/A,Fog,Light Freezing Fog,0,2013-01-08 12:52:00
7:05 AM,12.2,8.6,85,29.87,0.2,Calm,Calm,-,N/A,,Haze,0,2013-01-08 13:05:00
7:17 AM,12.2,10.4,92,29.87,0.2,Calm,Calm,-,N/A,Fog,Light Freezing Fog,0,2013-01-08 13:17:00
7:52 AM,14.0,10.0,84,29.91,0.2,ESE,3.5,-,N/A,Fog,Light Freezing Fog,120,2013-01-08 13:52:00
8:52 AM,15.1,12.0,88,29.92,0.2,SE,6.9,-,N/A,Fog,Light Freezing Fog,130,2013-01-08 14:52:00
9:05 AM,15.8,12.2,86,29.85,0.2,ESE,9.2,-,N/A,Fog,Light Freezing Fog,120,2013-01-08 15:05:00
9:14 AM,15.8,12.2,86,29.85,0.5,SE,8.1,-,N/A,Fog,Light Freezing Fog,130,2013-01-08 15:14:00
9:52 AM,18.0,15.1,88,29.92,0.5,SE,4.6,-,N/A,Fog,Light Freezing Fog,130,2013-01-08 15:52:00
10:52 AM,21.9,18.0,85,29.91,0.8,SSE,3.5,-,N/A,,Overcast,160,2013-01-08 16:52:00
11:23 AM,24.8,21.2,86,29.83,1.0,South,5.8,-,N/A,,Overcast,190,2013-01-08 17:23:00
11:52 AM,25.0,21.0,85,29.88,2.5,SW,3.5,-,N/A,,Partly Cloudy,230,2013-01-08 17:52:00
12:06 PM,26.6,21.2,80,29.81,2.5,SSW,8.1,-,N/A,,Mostly Cloudy,200,2013-01-08 18:06:00
12:50 PM,26.6,21.2,80,29.79,6.0,South,5.8,-,N/A,,Clear,180,2013-01-08 18:50:00
12:52 PM,27.0,23.0,85,29.84,6.0,South,6.9,-,N/A,,Clear,180,2013-01-08 18:52:00
1:52 PM,28.0,24.1,85,29.86,8.0,SSW,6.9,-,N/A,,Clear,200,2013-01-08 19:52:00
2:52 PM,30.9,26.1,82,29.88,9.0,SW,6.9,-,N/A,,Clear,220,2013-01-08 20:52:00
3:52 PM,32.0,27.0,82,29.91,8.0,SSW,6.9,-,N/A,,Scattered Clouds,210,2013-01-08 21:52:00
4:52 PM,32.0,28.0,85,29.95,9.0,SW,4.6,-,N/A,,Partly Cloudy,220,2013-01-08 22:52:00
5:52 PM,30.9,27.0,85,29.96,10.0,SSE,4.6,-,N/A,,Clear,160,2013-01-08 23:52:00
6:52 PM,28.9,26.1,89,29.99,7.0,ESE,3.5,-,N/A,,Clear,120,2013-01-09 00:52:00
7:52 PM,24.1,23.0,96,30.03,4.0,ESE,6.9,-,N/A,,Clear,110,2013-01-09 01:52:00
8:52 PM,24.1,21.0,88,30.06,6.0,West,3.5,-,N/A,,Clear,260,2013-01-09 02:52:00
9:52 PM,24.1,21.9,91,30.09,10.0,WSW,6.9,-,N/A,,Clear,240,2013-01-09 03:52:00
10:52 PM,21.9,19.9,92,30.12,9.0,Calm,Calm,-,N/A,,Clear,0,2013-01-09 04:52:00
11:52 PM,19.4,15.8,86,30.09,6.0,Calm,Calm,-,N/A,,Clear,0,2013-01-09 05:52:00